sensor_id;sensor_type;location;lat;lon;timestamp;pressure;altitude;pressure_sealevel;temperature;humidity
39613;BME280;25303;48.896;13.342;2023-03-25T00:02:19;92194.75;;;7.94;78.78
39613;BME280;25303;48.896;13.342;2023-03-25T00:05:06;92188.69;;;7.95;78.47
39613;BME280;25303;48.896;13.342;2023-03-25T00:07:51;92189.63;;;7.94;78.62
39613;BME280;25303;48.896;13.342;2023-03-25T00:10:34;92180.34;;;7.93;78.48
39613;BME280;25303;48.896;13.342;2023-03-25T00:13:17;92184.34;;;7.87;78.26
39613;BME280;25303;48.896;13.342;2023-03-25T00:16:01;92179.38;;;7.85;78.19
39613;BME280;25303;48.896;13.342;2023-03-25T00:18:44;92185.13;;;7.87;78.22
39613;BME280;25303;48.896;13.342;2023-03-25T00:21:29;92197.81;;;7.89;78.38
39613;BME280;25303;48.896;13.342;2023-03-25T00:24:14;92193.31;;;7.91;78.52
39613;BME280;25303;48.896;13.342;2023-03-25T00:26:58;92195.56;;;7.94;78.44
39613;BME280;25303;48.896;13.342;2023-03-25T00:29:41;92201.50;;;7.95;78.37
39613;BME280;25303;48.896;13.342;2023-03-25T00:32:24;92205.66;;;7.96;78.42
39613;BME280;25303;48.896;13.342;2023-03-25T00:35:10;92207.41;;;7.95;78.37
39613;BME280;25303;48.896;13.342;2023-03-25T00:37:55;92198.16;;;7.94;78.07
39613;BME280;25303;48.896;13.342;2023-03-25T00:40:41;92199.09;;;7.93;78.05
39613;BME280;25303;48.896;13.342;2023-03-25T00:43:23;92194.09;;;7.91;78.04
39613;BME280;25303;48.896;13.342;2023-03-25T00:46:07;92206.13;;;7.91;77.94
39613;BME280;25303;48.896;13.342;2023-03-25T00:48:49;92205.97;;;7.93;78.11
39613;BME280;25303;48.896;13.342;2023-03-25T00:51:33;92198.28;;;7.93;77.93
39613;BME280;25303;48.896;13.342;2023-03-25T00:54:35;92199.41;;;7.90;77.86
39613;BME280;25303;48.896;13.342;2023-03-25T00:57:18;92193.63;;;7.88;77.68
39613;BME280;25303;48.896;13.342;2023-03-25T01:00:02;92195.38;;;7.87;77.52
39613;BME280;25303;48.896;13.342;2023-03-25T01:02:48;92187.22;;;7.84;77.37
39613;BME280;25303;48.896;13.342;2023-03-25T01:05:34;92193.59;;;7.80;77.20
39613;BME280;25303;48.896;13.342;2023-03-25T01:08:17;92192.63;;;7.72;77.31
39613;BME280;25303;48.896;13.342;2023-03-25T01:11:16;92189.41;;;7.70;77.28
39613;BME280;25303;48.896;13.342;2023-03-25T01:14:04;92189.06;;;7.65;77.29
39613;BME280;25303;48.896;13.342;2023-03-25T01:16:47;92199.00;;;7.60;77.01
39613;BME280;25303;48.896;13.342;2023-03-25T01:19:30;92200.75;;;7.59;77.20
39613;BME280;25303;48.896;13.342;2023-03-25T01:22:13;92199.13;;;7.58;77.27
39613;BME280;25303;48.896;13.342;2023-03-25T01:24:56;92200.09;;;7.57;77.37
39613;BME280;25303;48.896;13.342;2023-03-25T01:27:40;92179.28;;;7.52;77.29
39613;BME280;25303;48.896;13.342;2023-03-25T01:30:23;92184.06;;;7.55;77.15
39613;BME280;25303;48.896;13.342;2023-03-25T01:33:07;92175.44;;;7.56;77.10
39613;BME280;25303;48.896;13.342;2023-03-25T01:35:49;92175.28;;;7.58;77.17
39613;BME280;25303;48.896;13.342;2023-03-25T01:38:33;92168.25;;;7.60;77.11
39613;BME280;25303;48.896;13.342;2023-03-25T01:41:16;92177.69;;;7.59;77.10
39613;BME280;25303;48.896;13.342;2023-03-25T01:44:09;92182.03;;;7.59;76.82
39613;BME280;25303;48.896;13.342;2023-03-25T01:47:11;92165.34;;;7.55;76.69
39613;BME280;25303;48.896;13.342;2023-03-25T01:49:54;92176.06;;;7.50;76.61
39613;BME280;25303;48.896;13.342;2023-03-25T01:52:38;92185.66;;;7.48;76.59
39613;BME280;25303;48.896;13.342;2023-03-25T01:55:21;92175.56;;;7.47;76.49
39613;BME280;25303;48.896;13.342;2023-03-25T01:58:08;92177.78;;;7.41;76.63
39613;BME280;25303;48.896;13.342;2023-03-25T02:00:53;92164.94;;;7.33;76.42
39613;BME280;25303;48.896;13.342;2023-03-25T02:03:38;92161.91;;;7.29;76.58
39613;BME280;25303;48.896;13.342;2023-03-25T02:06:29;92160.47;;;7.27;76.37
39613;BME280;25303;48.896;13.342;2023-03-25T02:09:17;92162.19;;;7.18;76.22
39613;BME280;25303;48.896;13.342;2023-03-25T02:12:02;92159.09;;;7.14;76.38
39613;BME280;25303;48.896;13.342;2023-03-25T02:14:45;92151.25;;;7.08;76.14
39613;BME280;25303;48.896;13.342;2023-03-25T02:17:34;92144.97;;;7.02;76.37
39613;BME280;25303;48.896;13.342;2023-03-25T02:21:03;92148.59;;;6.91;76.66
39613;BME280;25303;48.896;13.342;2023-03-25T02:27:29;92138.66;;;6.88;76.75
39613;BME280;25303;48.896;13.342;2023-03-25T02:30:47;92134.81;;;6.84;76.55
39613;BME280;25303;48.896;13.342;2023-03-25T02:33:49;92137.50;;;6.82;76.65
39613;BME280;25303;48.896;13.342;2023-03-25T02:37:05;92130.66;;;6.83;76.86
39613;BME280;25303;48.896;13.342;2023-03-25T02:39:57;92133.50;;;6.80;76.91
39613;BME280;25303;48.896;13.342;2023-03-25T02:42:47;92123.44;;;6.78;76.83
39613;BME280;25303;48.896;13.342;2023-03-25T02:45:36;92133.50;;;6.80;76.91
39613;BME280;25303;48.896;13.342;2023-03-25T02:48:22;92132.84;;;6.78;76.69
39613;BME280;25303;48.896;13.342;2023-03-25T02:51:11;92129.66;;;6.76;77.03
39613;BME280;25303;48.896;13.342;2023-03-25T02:53:59;92118.94;;;6.72;77.08
39613;BME280;25303;48.896;13.342;2023-03-25T02:56:45;92121.63;;;6.71;77.05
39613;BME280;25303;48.896;13.342;2023-03-25T02:59:30;92130.28;;;6.69;76.96
39613;BME280;25303;48.896;13.342;2023-03-25T03:02:16;92117.78;;;6.66;77.15
39613;BME280;25303;48.896;13.342;2023-03-25T03:05:00;92122.06;;;6.66;77.43
39613;BME280;25303;48.896;13.342;2023-03-25T03:07:45;92128.97;;;6.65;77.35
39613;BME280;25303;48.896;13.342;2023-03-25T03:10:40;92128.00;;;6.66;77.38
39613;BME280;25303;48.896;13.342;2023-03-25T03:13:37;92130.88;;;6.63;77.45
39613;BME280;25303;48.896;13.342;2023-03-25T03:16:32;92130.88;;;6.63;77.66
39613;BME280;25303;48.896;13.342;2023-03-25T03:19:28;92138.38;;;6.65;77.56
39613;BME280;25303;48.896;13.342;2023-03-25T03:22:34;92133.59;;;6.62;77.88
39613;BME280;25303;48.896;13.342;2023-03-25T03:25:26;92127.66;;;6.61;77.59
39613;BME280;25303;48.896;13.342;2023-03-25T03:28:15;92124.31;;;6.61;77.73
39613;BME280;25303;48.896;13.342;2023-03-25T03:31:06;92120.78;;;6.62;77.69
39613;BME280;25303;48.896;13.342;2023-03-25T03:33:56;92128.31;;;6.63;77.79
39613;BME280;25303;48.896;13.342;2023-03-25T03:36:45;92125.59;;;6.65;77.74
39613;BME280;25303;48.896;13.342;2023-03-25T03:39:31;92122.91;;;6.66;77.56
39613;BME280;25303;48.896;13.342;2023-03-25T03:42:19;92123.69;;;6.67;77.85
39613;BME280;25303;48.896;13.342;2023-03-25T03:45:07;92131.22;;;6.68;77.74
39613;BME280;25303;48.896;13.342;2023-03-25T03:47:54;92132.00;;;6.69;77.64
39613;BME280;25303;48.896;13.342;2023-03-25T03:50:41;92139.88;;;6.76;77.53
39613;BME280;25303;48.896;13.342;2023-03-25T03:53:29;92140.84;;;6.75;77.31
39613;BME280;25303;48.896;13.342;2023-03-25T03:56:17;92144.22;;;6.75;77.30
39613;BME280;25303;48.896;13.342;2023-03-25T03:59:06;92149.31;;;6.75;77.45
39613;BME280;25303;48.896;13.342;2023-03-25T04:01:54;92150.94;;;6.76;77.28
39613;BME280;25303;48.896;13.342;2023-03-25T04:04:42;92152.66;;;6.76;77.58
39613;BME280;25303;48.896;13.342;2023-03-25T04:07:31;92144.22;;;6.75;77.46
39613;BME280;25303;48.896;13.342;2023-03-25T04:10:22;92142.06;;;6.71;77.36
39613;BME280;25303;48.896;13.342;2023-03-25T04:13:12;92146.25;;;6.72;77.49
39613;BME280;25303;48.896;13.342;2023-03-25T04:15:58;92147.34;;;6.69;77.69
39613;BME280;25303;48.896;13.342;2023-03-25T04:18:41;92157.75;;;6.67;77.64
39613;BME280;25303;48.896;13.342;2023-03-25T04:21:30;92161.56;;;6.63;77.64
39613;BME280;25303;48.896;13.342;2023-03-25T04:24:13;92162.00;;;6.59;78.29
39613;BME280;25303;48.896;13.342;2023-03-25T04:26:57;92160.25;;;6.59;77.86
39613;BME280;25303;48.896;13.342;2023-03-25T04:29:44;92157.97;;;6.56;77.87
39613;BME280;25303;48.896;13.342;2023-03-25T04:32:28;92148.84;;;6.53;77.79
39613;BME280;25303;48.896;13.342;2023-03-25T04:35:12;92145.00;;;6.49;77.90
39613;BME280;25303;48.896;13.342;2023-03-25T04:37:56;92135.72;;;6.48;77.74
39613;BME280;25303;48.896;13.342;2023-03-25T04:40:39;92141.28;;;6.44;77.56
39613;BME280;25303;48.896;13.342;2023-03-25T04:43:27;92141.28;;;6.44;77.30
39613;BME280;25303;48.896;13.342;2023-03-25T04:46:12;92143.72;;;6.27;77.39
39613;BME280;25303;48.896;13.342;2023-03-25T04:48:56;92145.31;;;6.28;77.43
39613;BME280;25303;48.896;13.342;2023-03-25T04:51:40;92149.28;;;6.22;77.67
39613;BME280;25303;48.896;13.342;2023-03-25T04:54:27;92144.97;;;6.23;77.49
39613;BME280;25303;48.896;13.342;2023-03-25T04:57:10;92144.91;;;6.15;77.77
39613;BME280;25303;48.896;13.342;2023-03-25T04:59:52;92134.31;;;6.10;77.50
39613;BME280;25303;48.896;13.342;2023-03-25T05:02:35;92132.50;;;6.02;77.35
39613;BME280;25303;48.896;13.342;2023-03-25T05:05:20;92137.75;;;6.00;77.14
39613;BME280;25303;48.896;13.342;2023-03-25T05:08:03;92137.34;;;5.95;77.09
39613;BME280;25303;48.896;13.342;2023-03-25T05:10:48;92136.47;;;5.86;77.04
39613;BME280;25303;48.896;13.342;2023-03-25T05:13:31;92141.66;;;5.76;76.88
39613;BME280;25303;48.896;13.342;2023-03-25T05:16:14;92150.41;;;5.74;76.82
39613;BME280;25303;48.896;13.342;2023-03-25T05:18:57;92154.06;;;5.71;77.04
39613;BME280;25303;48.896;13.342;2023-03-25T05:21:40;92162.97;;;5.67;77.06
39613;BME280;25303;48.896;13.342;2023-03-25T05:24:23;92157.84;;;5.67;77.32
39613;BME280;25303;48.896;13.342;2023-03-25T05:27:08;92167.41;;;5.65;77.64
39613;BME280;25303;48.896;13.342;2023-03-25T05:29:51;92167.47;;;5.55;78.05
39613;BME280;25303;48.896;13.342;2023-03-25T05:32:34;92166.91;;;5.61;78.11
39613;BME280;25303;48.896;13.342;2023-03-25T05:35:17;92175.88;;;5.66;78.20
39613;BME280;25303;48.896;13.342;2023-03-25T05:38:01;92172.53;;;5.65;78.44
39613;BME280;25303;48.896;13.342;2023-03-25T05:40:44;92165.25;;;5.70;78.22
39613;BME280;25303;48.896;13.342;2023-03-25T05:43:29;92166.81;;;5.71;78.35
39613;BME280;25303;48.896;13.342;2023-03-25T05:46:17;92159.69;;;5.75;78.54
39613;BME280;25303;48.896;13.342;2023-03-25T05:49:01;92161.81;;;5.80;78.69
39613;BME280;25303;48.896;13.342;2023-03-25T05:51:44;92165.03;;;5.82;78.69
39613;BME280;25303;48.896;13.342;2023-03-25T05:54:30;92149.69;;;5.82;78.78
39613;BME280;25303;48.896;13.342;2023-03-25T05:57:12;92147.81;;;5.84;78.68
39613;BME280;25303;48.896;13.342;2023-03-25T05:59:57;92138.03;;;5.79;79.05
39613;BME280;25303;48.896;13.342;2023-03-25T06:02:40;92145.09;;;5.85;78.69
39613;BME280;25303;48.896;13.342;2023-03-25T06:05:24;92141.16;;;5.91;78.48
39613;BME280;25303;48.896;13.342;2023-03-25T06:08:10;92142.75;;;5.92;78.59
39613;BME280;25303;48.896;13.342;2023-03-25T06:10:54;92136.56;;;5.95;78.59
39613;BME280;25303;48.896;13.342;2023-03-25T06:13:40;92142.97;;;5.99;78.55
39613;BME280;25303;48.896;13.342;2023-03-25T06:16:31;92142.19;;;5.98;78.65
39613;BME280;25303;48.896;13.342;2023-03-25T06:19:14;92145.78;;;6.05;78.84
39613;BME280;25303;48.896;13.342;2023-03-25T06:21:59;92163.75;;;6.14;78.61
39613;BME280;25303;48.896;13.342;2023-03-25T06:24:42;92162.28;;;6.11;78.67
39613;BME280;25303;48.896;13.342;2023-03-25T06:27:25;92162.28;;;6.11;78.36
39613;BME280;25303;48.896;13.342;2023-03-25T06:30:10;92161.34;;;6.12;78.43
39613;BME280;25303;48.896;13.342;2023-03-25T06:32:55;92155.25;;;6.13;78.66
39613;BME280;25303;48.896;13.342;2023-03-25T06:35:40;92154.03;;;6.17;78.30
39613;BME280;25303;48.896;13.342;2023-03-25T06:38:23;92165.19;;;6.16;78.54
39613;BME280;25303;48.896;13.342;2023-03-25T06:41:25;92170.47;;;6.15;78.42
39613;BME280;25303;48.896;13.342;2023-03-25T06:44:29;92168.84;;;6.14;78.32
39613;BME280;25303;48.896;13.342;2023-03-25T06:47:46;92163.81;;;6.04;78.28
39613;BME280;25303;48.896;13.342;2023-03-25T06:50:31;92160.31;;;6.05;78.54
39613;BME280;25303;48.896;13.342;2023-03-25T06:53:14;92179.16;;;6.04;78.48
39613;BME280;25303;48.896;13.342;2023-03-25T06:55:57;92176.44;;;6.05;78.14
39613;BME280;25303;48.896;13.342;2023-03-25T06:58:40;92164.00;;;5.92;77.96
39613;BME280;25303;48.896;13.342;2023-03-25T07:01:23;92173.41;;;5.92;77.41
39613;BME280;25303;48.896;13.342;2023-03-25T07:04:05;92180.28;;;5.91;77.16
39613;BME280;25303;48.896;13.342;2023-03-25T07:06:50;92179.06;;;5.96;77.19
39613;BME280;25303;48.896;13.342;2023-03-25T07:09:35;92166.69;;;5.91;77.14
39613;BME280;25303;48.896;13.342;2023-03-25T07:12:18;92174.88;;;5.95;76.87
39613;BME280;25303;48.896;13.342;2023-03-25T07:15:01;92172.97;;;5.97;76.99
39613;BME280;25303;48.896;13.342;2023-03-25T07:17:45;92171.22;;;5.97;76.92
39613;BME280;25303;48.896;13.342;2023-03-25T07:20:30;92176.50;;;5.96;76.56
39613;BME280;25303;48.896;13.342;2023-03-25T07:23:14;92187.13;;;5.91;75.84
39613;BME280;25303;48.896;13.342;2023-03-25T07:25:57;92183.03;;;5.80;75.69
39613;BME280;25303;48.896;13.342;2023-03-25T07:28:40;92182.19;;;5.89;76.09
39613;BME280;25303;48.896;13.342;2023-03-25T07:31:23;92191.81;;;5.96;76.13
39613;BME280;25303;48.896;13.342;2023-03-25T07:34:06;92195.25;;;6.04;76.32
39613;BME280;25303;48.896;13.342;2023-03-25T07:36:49;92191.75;;;6.05;75.80
39613;BME280;25303;48.896;13.342;2023-03-25T07:39:34;92183.47;;;6.03;75.24
39613;BME280;25303;48.896;13.342;2023-03-25T07:42:17;92194.41;;;6.14;75.65
39613;BME280;25303;48.896;13.342;2023-03-25T07:45:26;92197.84;;;6.22;75.33
39613;BME280;25303;48.896;13.342;2023-03-25T07:48:09;92200.03;;;6.35;75.31
39613;BME280;25303;48.896;13.342;2023-03-25T07:50:55;92204.03;;;6.38;75.08
39613;BME280;25303;48.896;13.342;2023-03-25T07:53:38;92198.44;;;6.34;74.46
39613;BME280;25303;48.896;13.342;2023-03-25T07:56:26;92211.94;;;6.27;73.85
39613;BME280;25303;48.896;13.342;2023-03-25T07:59:09;92193.88;;;6.28;73.70
39613;BME280;25303;48.896;13.342;2023-03-25T08:01:52;92214.72;;;6.33;73.32
39613;BME280;25303;48.896;13.342;2023-03-25T08:04:35;92215.88;;;6.39;72.51
39613;BME280;25303;48.896;13.342;2023-03-25T08:07:18;92210.53;;;6.50;73.09
39613;BME280;25303;48.896;13.342;2023-03-25T08:10:00;92220.00;;;6.58;73.01
39613;BME280;25303;48.896;13.342;2023-03-25T08:12:45;92214.75;;;6.60;73.00
39613;BME280;25303;48.896;13.342;2023-03-25T08:15:28;92229.66;;;6.46;72.08
39613;BME280;25303;48.896;13.342;2023-03-25T08:18:11;92231.13;;;6.49;72.35
39613;BME280;25303;48.896;13.342;2023-03-25T08:20:54;92235.59;;;6.47;72.05
39613;BME280;25303;48.896;13.342;2023-03-25T08:23:37;92235.97;;;6.52;72.66
39613;BME280;25303;48.896;13.342;2023-03-25T08:26:19;92236.91;;;6.51;72.34
39613;BME280;25303;48.896;13.342;2023-03-25T08:29:04;92235.44;;;6.48;72.24
39613;BME280;25303;48.896;13.342;2023-03-25T08:31:48;92233.53;;;6.50;72.10
39613;BME280;25303;48.896;13.342;2023-03-25T08:34:33;92253.19;;;6.50;70.93
39613;BME280;25303;48.896;13.342;2023-03-25T08:37:20;92248.75;;;6.52;70.57
39613;BME280;25303;48.896;13.342;2023-03-25T08:40:05;92245.94;;;6.63;71.00
39613;BME280;25303;48.896;13.342;2023-03-25T08:42:49;92246.63;;;6.65;70.39
39613;BME280;25303;48.896;13.342;2023-03-25T08:45:33;92257.09;;;6.80;70.66
39613;BME280;25303;48.896;13.342;2023-03-25T08:48:17;92247.44;;;6.92;70.42
39613;BME280;25303;48.896;13.342;2023-03-25T08:51:00;92241.78;;;7.07;70.57
39613;BME280;25303;48.896;13.342;2023-03-25T08:53:43;92253.16;;;7.12;69.37
39613;BME280;25303;48.896;13.342;2023-03-25T08:56:26;92231.44;;;7.17;68.70
39613;BME280;25303;48.896;13.342;2023-03-25T08:59:09;92241.06;;;7.23;68.70
39613;BME280;25303;48.896;13.342;2023-03-25T09:01:54;92232.81;;;7.37;69.17
39613;BME280;25303;48.896;13.342;2023-03-25T09:04:41;92226.59;;;7.40;68.07
39613;BME280;25303;48.896;13.342;2023-03-25T09:07:24;92226.34;;;7.51;67.90
39613;BME280;25303;48.896;13.342;2023-03-25T09:10:08;92233.09;;;7.60;68.19
39613;BME280;25303;48.896;13.342;2023-03-25T09:12:53;92228.13;;;7.59;67.72
39613;BME280;25303;48.896;13.342;2023-03-25T09:15:36;92232.25;;;7.52;67.51
39613;BME280;25303;48.896;13.342;2023-03-25T09:18:20;92227.44;;;7.49;67.24
39613;BME280;25303;48.896;13.342;2023-03-25T09:21:03;92222.47;;;7.47;67.40
39613;BME280;25303;48.896;13.342;2023-03-25T09:23:46;92219.44;;;7.43;67.57
39613;BME280;25303;48.896;13.342;2023-03-25T09:26:29;92209.28;;;7.34;66.86
39613;BME280;25303;48.896;13.342;2023-03-25T09:29:12;92217.13;;;7.32;67.07
39613;BME280;25303;48.896;13.342;2023-03-25T09:31:55;92219.78;;;7.22;67.20
39613;BME280;25303;48.896;13.342;2023-03-25T09:34:41;92226.47;;;7.15;67.43
39613;BME280;25303;48.896;13.342;2023-03-25T09:37:24;92234.16;;;6.89;68.02
39613;BME280;25303;48.896;13.342;2023-03-25T09:40:11;92242.16;;;6.67;68.81
39613;BME280;25303;48.896;13.342;2023-03-25T09:43:02;92234.84;;;6.54;69.24
39613;BME280;25303;48.896;13.342;2023-03-25T09:45:47;92237.66;;;6.43;70.19
39613;BME280;25303;48.896;13.342;2023-03-25T09:48:34;92234.44;;;6.41;71.36
39613;BME280;25303;48.896;13.342;2023-03-25T09:51:23;92227.41;;;6.43;72.15
39613;BME280;25303;48.896;13.342;2023-03-25T09:54:13;92224.13;;;6.51;72.95
39613;BME280;25303;48.896;13.342;2023-03-25T09:57:01;92223.81;;;6.72;74.03
39613;BME280;25303;48.896;13.342;2023-03-25T09:59:48;92212.34;;;7.03;73.78
39613;BME280;25303;48.896;13.342;2023-03-25T10:02:35;92216.19;;;7.07;72.77
39613;BME280;25303;48.896;13.342;2023-03-25T10:05:33;92209.63;;;7.04;72.47
39613;BME280;25303;48.896;13.342;2023-03-25T10:08:28;92210.06;;;6.99;71.17
39613;BME280;25303;48.896;13.342;2023-03-25T10:11:18;92196.41;;;7.17;73.10
39613;BME280;25303;48.896;13.342;2023-03-25T10:14:07;92207.16;;;7.64;73.88
39613;BME280;25303;48.896;13.342;2023-03-25T10:17:02;92191.25;;;8.03;72.50
39613;BME280;25303;48.896;13.342;2023-03-25T10:19:58;92175.75;;;8.46;71.48
39613;BME280;25303;48.896;13.342;2023-03-25T10:22:56;92181.38;;;8.82;69.71
39613;BME280;25303;48.896;13.342;2023-03-25T10:25:47;92185.63;;;9.23;69.88
39613;BME280;25303;48.896;13.342;2023-03-25T10:28:35;92178.34;;;9.43;67.34
39613;BME280;25303;48.896;13.342;2023-03-25T10:31:22;92173.84;;;9.37;66.21
39613;BME280;25303;48.896;13.342;2023-03-25T10:34:13;92177.41;;;9.28;65.12
39613;BME280;25303;48.896;13.342;2023-03-25T10:37:01;92182.59;;;9.11;64.12
39613;BME280;25303;48.896;13.342;2023-03-25T10:39:46;92188.38;;;9.14;64.94
39613;BME280;25303;48.896;13.342;2023-03-25T10:42:37;92195.44;;;9.03;64.85
39613;BME280;25303;48.896;13.342;2023-03-25T10:45:21;92192.72;;;9.05;65.22
39613;BME280;25303;48.896;13.342;2023-03-25T10:48:10;92189.06;;;8.99;64.08
39613;BME280;25303;48.896;13.342;2023-03-25T10:51:01;92183.38;;;9.12;64.96
39613;BME280;25303;48.896;13.342;2023-03-25T10:53:47;92174.53;;;9.23;63.09
39613;BME280;25303;48.896;13.342;2023-03-25T10:56:33;92171.72;;;9.49;63.57
39613;BME280;25303;48.896;13.342;2023-03-25T10:59:22;92163.63;;;9.69;62.59
39613;BME280;25303;48.896;13.342;2023-03-25T11:02:12;92175.50;;;9.70;61.68
39613;BME280;25303;48.896;13.342;2023-03-25T11:05:01;92157.84;;;9.67;60.92
39613;BME280;25303;48.896;13.342;2023-03-25T11:07:49;92155.56;;;9.72;60.79
39613;BME280;25303;48.896;13.342;2023-03-25T11:10:33;92150.03;;;9.52;58.85
39613;BME280;25303;48.896;13.342;2023-03-25T11:13:16;92157.00;;;9.35;59.35
39613;BME280;25303;48.896;13.342;2023-03-25T11:16:05;92161.00;;;9.37;59.53
39613;BME280;25303;48.896;13.342;2023-03-25T11:18:50;92155.03;;;9.45;59.69
39613;BME280;25303;48.896;13.342;2023-03-25T11:21:35;92160.69;;;9.40;58.77
39613;BME280;25303;48.896;13.342;2023-03-25T11:24:18;92156.00;;;9.44;58.37
39613;BME280;25303;48.896;13.342;2023-03-25T11:27:01;92155.84;;;9.46;58.39
39613;BME280;25303;48.896;13.342;2023-03-25T11:29:50;92133.38;;;9.39;57.38
39613;BME280;25303;48.896;13.342;2023-03-25T11:32:36;92130.53;;;9.34;56.70
39613;BME280;25303;48.896;13.342;2023-03-25T11:35:22;92126.38;;;9.33;56.56
39613;BME280;25303;48.896;13.342;2023-03-25T11:38:13;92128.63;;;9.20;54.17
39613;BME280;25303;48.896;13.342;2023-03-25T11:40:57;92126.13;;;9.11;54.30
39613;BME280;25303;48.896;13.342;2023-03-25T11:43:41;92132.16;;;9.19;54.83
39613;BME280;25303;48.896;13.342;2023-03-25T11:46:24;92128.03;;;9.09;55.07
39613;BME280;25303;48.896;13.342;2023-03-25T11:49:09;92116.31;;;9.15;55.26
39613;BME280;25303;48.896;13.342;2023-03-25T11:51:58;92108.22;;;9.35;56.06
39613;BME280;25303;48.896;13.342;2023-03-25T11:54:43;92105.91;;;9.71;54.50
39613;BME280;25303;48.896;13.342;2023-03-25T11:57:29;92098.44;;;9.85;54.83
39613;BME280;25303;48.896;13.342;2023-03-25T12:00:30;92102.06;;;9.99;53.21
39613;BME280;25303;48.896;13.342;2023-03-25T12:03:18;92103.03;;;9.98;54.02
39613;BME280;25303;48.896;13.342;2023-03-25T12:06:05;92091.22;;;9.88;54.26
39613;BME280;25303;48.896;13.342;2023-03-25T12:08:56;92095.00;;;9.69;54.20
39613;BME280;25303;48.896;13.342;2023-03-25T12:11:44;92091.53;;;9.62;55.55
39613;BME280;25303;48.896;13.342;2023-03-25T12:14:40;92102.19;;;9.51;56.07
39613;BME280;25303;48.896;13.342;2023-03-25T12:17:33;92103.06;;;9.35;57.33
39613;BME280;25303;48.896;13.342;2023-03-25T12:20:27;92099.78;;;9.09;57.76
39613;BME280;25303;48.896;13.342;2023-03-25T12:23:19;92103.06;;;8.95;59.01
39613;BME280;25303;48.896;13.342;2023-03-25T12:26:09;92095.31;;;9.11;61.12
39613;BME280;25303;48.896;13.342;2023-03-25T12:29:27;92102.22;;;9.42;61.52
39613;BME280;25303;48.896;13.342;2023-03-25T12:32:21;92083.81;;;9.62;59.41
39613;BME280;25303;48.896;13.342;2023-03-25T12:35:25;92076.91;;;9.86;60.32
39613;BME280;25303;48.896;13.342;2023-03-25T12:38:25;92064.91;;;10.25;60.02
39613;BME280;25303;48.896;13.342;2023-03-25T12:41:20;92064.63;;;10.34;58.14
39613;BME280;25303;48.896;13.342;2023-03-25T12:44:07;92059.88;;;10.31;58.40
39613;BME280;25303;48.896;13.342;2023-03-25T12:47:10;92068.50;;;10.15;57.63
39613;BME280;25303;48.896;13.342;2023-03-25T12:50:07;92062.94;;;9.88;58.20
39613;BME280;25303;48.896;13.342;2023-03-25T12:52:55;92057.69;;;9.58;58.52
39613;BME280;25303;48.896;13.342;2023-03-25T12:55:59;92059.94;;;9.22;59.08
39613;BME280;25303;48.896;13.342;2023-03-25T12:58:56;92071.16;;;8.89;60.19
39613;BME280;25303;48.896;13.342;2023-03-25T13:01:49;92073.44;;;8.68;60.59
39613;BME280;25303;48.896;13.342;2023-03-25T13:04:49;92084.56;;;8.51;62.05
39613;BME280;25303;48.896;13.342;2023-03-25T13:07:39;92112.94;;;8.25;62.91
39613;BME280;25303;48.896;13.342;2023-03-25T13:10:27;92123.97;;;7.93;64.29
39613;BME280;25303;48.896;13.342;2023-03-25T13:13:15;92125.50;;;7.60;64.10
39613;BME280;25303;48.896;13.342;2023-03-25T13:16:04;92114.50;;;7.17;65.67
39613;BME280;25303;48.896;13.342;2023-03-25T13:18:54;92109.75;;;6.96;65.69
39613;BME280;25303;48.896;13.342;2023-03-25T13:21:40;92116.00;;;6.93;66.53
39613;BME280;25303;48.896;13.342;2023-03-25T13:24:33;92103.91;;;7.12;69.04
39613;BME280;25303;48.896;13.342;2023-03-25T13:27:20;92103.19;;;7.36;68.80
39613;BME280;25303;48.896;13.342;2023-03-25T13:30:13;92096.38;;;7.70;69.65
39613;BME280;25303;48.896;13.342;2023-03-25T13:33:04;92101.53;;;7.95;68.58
39613;BME280;25303;48.896;13.342;2023-03-25T13:35:51;92099.78;;;8.03;67.75
39613;BME280;25303;48.896;13.342;2023-03-25T13:38:53;92101.72;;;8.10;68.17
39613;BME280;25303;48.896;13.342;2023-03-25T13:41:54;92094.97;;;8.09;67.61
39613;BME280;25303;48.896;13.342;2023-03-25T13:44:39;92106.66;;;8.11;68.08
39613;BME280;25303;48.896;13.342;2023-03-25T13:47:31;92112.28;;;8.15;68.83
39613;BME280;25303;48.896;13.342;2023-03-25T13:50:20;92109.22;;;8.19;68.42
39613;BME280;25303;48.896;13.342;2023-03-25T13:53:09;92106.34;;;7.98;68.66
39613;BME280;25303;48.896;13.342;2023-03-25T13:56:11;92105.06;;;8.10;69.45
39613;BME280;25303;48.896;13.342;2023-03-25T13:59:25;92099.47;;;8.23;69.99
39613;BME280;25303;48.896;13.342;2023-03-25T14:02:30;92096.25;;;8.29;69.20
39613;BME280;25303;48.896;13.342;2023-03-25T14:05:39;92105.69;;;8.45;69.41
39613;BME280;25303;48.896;13.342;2023-03-25T14:08:52;92104.91;;;8.53;68.73
39613;BME280;25303;48.896;13.342;2023-03-25T14:11:43;92105.56;;;8.55;68.31
39613;BME280;25303;48.896;13.342;2023-03-25T14:14:32;92111.78;;;8.52;67.92
39613;BME280;25303;48.896;13.342;2023-03-25T14:17:17;92105.41;;;8.48;67.67
39613;BME280;25303;48.896;13.342;2023-03-25T14:20:03;92104.59;;;8.40;67.97
39613;BME280;25303;48.896;13.342;2023-03-25T14:22:54;92098.34;;;8.26;67.81
39613;BME280;25303;48.896;13.342;2023-03-25T14:25:40;92097.53;;;8.17;67.50
39613;BME280;25303;48.896;13.342;2023-03-25T14:28:32;92077.69;;;8.11;67.58
39613;BME280;25303;48.896;13.342;2023-03-25T14:31:27;92093.22;;;8.09;67.78
39613;BME280;25303;48.896;13.342;2023-03-25T14:37:29;92099.47;;;7.90;68.45
39613;BME280;25303;48.896;13.342;2023-03-25T14:40:45;92119.25;;;7.55;70.35
39613;BME280;25303;48.896;13.342;2023-03-25T14:43:44;92113.56;;;7.26;68.43
39613;BME280;25303;48.896;13.342;2023-03-25T14:46:34;92117.22;;;6.81;68.02
39613;BME280;25303;48.896;13.342;2023-03-25T14:49:19;92124.28;;;6.34;67.16
39613;BME280;25303;48.896;13.342;2023-03-25T14:52:03;92133.16;;;6.04;67.26
39613;BME280;25303;48.896;13.342;2023-03-25T14:54:50;92135.16;;;5.82;67.75
39613;BME280;25303;48.896;13.342;2023-03-25T14:57:39;92136.78;;;5.65;68.04